sensor_id;sensor_type;location;lat;lon;timestamp;temperature;humidity
3644;DHT22;1838;50.742;7.158;2023-08-30T00:01:58;16.70;99.90
3644;DHT22;1838;50.742;7.158;2023-08-30T00:04:24;16.80;99.90
3644;DHT22;1838;50.742;7.158;2023-08-30T00:06:49;16.80;99.90
3644;DHT22;1838;50.742;7.158;2023-08-30T00:09:15;16.80;99.90
3644;DHT22;1838;50.742;7.158;2023-08-30T00:11:41;16.70;99.90
3644;DHT22;1838;50.742;7.158;2023-08-30T00:14:07;16.70;99.90
3644;DHT22;1838;50.742;7.158;2023-08-30T00:16:33;16.70;99.90
3644;DHT22;1838;50.742;7.158;2023-08-30T00:18:59;16.60;99.90
3644;DHT22;1838;50.742;7.158;2023-08-30T00:21:25;16.60;99.90
3644;DHT22;1838;50.742;7.158;2023-08-30T00:23:51;16.60;99.90
3644;DHT22;1838;50.742;7.158;2023-08-30T00:26:17;16.60;99.90
3644;DHT22;1838;50.742;7.158;2023-08-30T00:28:42;16.60;99.90
3644;DHT22;1838;50.742;7.158;2023-08-30T00:31:08;16.50;99.90
3644;DHT22;1838;50.742;7.158;2023-08-30T00:33:33;16.50;99.90
3644;DHT22;1838;50.742;7.158;2023-08-30T00:35:59;16.40;99.90
3644;DHT22;1838;50.742;7.158;2023-08-30T00:38:27;16.40;99.90
3644;DHT22;1838;50.742;7.158;2023-08-30T00:40:53;16.30;99.90
3644;DHT22;1838;50.742;7.158;2023-08-30T00:43:19;16.30;99.90
3644;DHT22;1838;50.742;7.158;2023-08-30T00:45:46;16.10;99.90
3644;DHT22;1838;50.742;7.158;2023-08-30T00:48:12;16.10;99.90
3644;DHT22;1838;50.742;7.158;2023-08-30T00:50:39;16.10;99.90
3644;DHT22;1838;50.742;7.158;2023-08-30T00:53:05;16.20;99.90
3644;DHT22;1838;50.742;7.158;2023-08-30T00:55:33;16.20;99.90
3644;DHT22;1838;50.742;7.158;2023-08-30T00:58:00;16.20;99.90
3644;DHT22;1838;50.742;7.158;2023-08-30T01:00:26;16.20;99.90
3644;DHT22;1838;50.742;7.158;2023-08-30T01:02:53;16.20;99.90
3644;DHT22;1838;50.742;7.158;2023-08-30T01:05:19;16.20;99.90
3644;DHT22;1838;50.742;7.158;2023-08-30T01:07:44;16.20;99.90
3644;DHT22;1838;50.742;7.158;2023-08-30T01:10:10;16.20;99.90
3644;DHT22;1838;50.742;7.158;2023-08-30T01:12:46;16.20;99.90
3644;DHT22;1838;50.742;7.158;2023-08-30T01:15:15;16.20;99.90
3644;DHT22;1838;50.742;7.158;2023-08-30T01:17:44;16.10;99.90
3644;DHT22;1838;50.742;7.158;2023-08-30T01:20:10;16.10;99.90
3644;DHT22;1838;50.742;7.158;2023-08-30T01:23:05;16.10;99.90
3644;DHT22;1838;50.742;7.158;2023-08-30T01:25:31;16.00;99.90
3644;DHT22;1838;50.742;7.158;2023-08-30T01:28:01;15.80;99.90
3644;DHT22;1838;50.742;7.158;2023-08-30T01:30:29;15.70;99.90
3644;DHT22;1838;50.742;7.158;2023-08-30T01:32:56;15.70;99.90
3644;DHT22;1838;50.742;7.158;2023-08-30T01:35:23;15.70;99.90
3644;DHT22;1838;50.742;7.158;2023-08-30T01:37:48;15.70;99.90
3644;DHT22;1838;50.742;7.158;2023-08-30T01:40:16;15.70;99.90
3644;DHT22;1838;50.742;7.158;2023-08-30T01:42:43;15.70;99.90
3644;DHT22;1838;50.742;7.158;2023-08-30T01:45:11;15.70;99.90
3644;DHT22;1838;50.742;7.158;2023-08-30T01:47:39;15.70;99.90
3644;DHT22;1838;50.742;7.158;2023-08-30T01:50:05;15.70;99.90
3644;DHT22;1838;50.742;7.158;2023-08-30T01:52:32;15.80;99.90
3644;DHT22;1838;50.742;7.158;2023-08-30T01:54:58;15.80;99.90
3644;DHT22;1838;50.742;7.158;2023-08-30T01:57:25;15.70;99.90
3644;DHT22;1838;50.742;7.158;2023-08-30T01:59:50;15.80;99.90
3644;DHT22;1838;50.742;7.158;2023-08-30T02:02:16;15.80;99.90
3644;DHT22;1838;50.742;7.158;2023-08-30T02:04:41;15.80;99.90
3644;DHT22;1838;50.742;7.158;2023-08-30T02:07:15;15.90;99.90
3644;DHT22;1838;50.742;7.158;2023-08-30T02:09:58;15.90;99.90
3644;DHT22;1838;50.742;7.158;2023-08-30T02:12:30;15.90;99.90
3644;DHT22;1838;50.742;7.158;2023-08-30T02:14:57;15.90;99.90
3644;DHT22;1838;50.742;7.158;2023-08-30T02:17:24;15.90;99.90
3644;DHT22;1838;50.742;7.158;2023-08-30T02:19:49;15.90;99.90
3644;DHT22;1838;50.742;7.158;2023-08-30T02:22:18;15.90;99.90
3644;DHT22;1838;50.742;7.158;2023-08-30T02:24:44;15.90;99.90
3644;DHT22;1838;50.742;7.158;2023-08-30T02:27:09;16.00;99.90
3644;DHT22;1838;50.742;7.158;2023-08-30T02:29:35;15.90;99.90
3644;DHT22;1838;50.742;7.158;2023-08-30T02:32:00;16.00;99.90
3644;DHT22;1838;50.742;7.158;2023-08-30T02:34:26;16.00;99.90
3644;DHT22;1838;50.742;7.158;2023-08-30T02:36:51;16.00;99.90
3644;DHT22;1838;50.742;7.158;2023-08-30T02:39:17;16.00;99.90
3644;DHT22;1838;50.742;7.158;2023-08-30T02:41:42;16.00;99.90
3644;DHT22;1838;50.742;7.158;2023-08-30T02:44:08;15.90;99.90
3644;DHT22;1838;50.742;7.158;2023-08-30T02:46:33;15.90;99.90
3644;DHT22;1838;50.742;7.158;2023-08-30T02:48:59;15.90;99.90
3644;DHT22;1838;50.742;7.158;2023-08-30T02:51:25;15.90;99.90
3644;DHT22;1838;50.742;7.158;2023-08-30T02:53:50;15.90;99.90
3644;DHT22;1838;50.742;7.158;2023-08-30T02:56:16;15.90;99.90
3644;DHT22;1838;50.742;7.158;2023-08-30T02:58:41;15.90;99.90
3644;DHT22;1838;50.742;7.158;2023-08-30T03:01:07;15.90;99.90
3644;DHT22;1838;50.742;7.158;2023-08-30T03:03:32;16.00;99.90
3644;DHT22;1838;50.742;7.158;2023-08-30T03:05:58;16.00;99.90
3644;DHT22;1838;50.742;7.158;2023-08-30T03:08:23;16.00;99.90
3644;DHT22;1838;50.742;7.158;2023-08-30T03:10:49;16.00;99.90
3644;DHT22;1838;50.742;7.158;2023-08-30T03:13:14;16.00;99.90
3644;DHT22;1838;50.742;7.158;2023-08-30T03:15:40;16.00;99.90
3644;DHT22;1838;50.742;7.158;2023-08-30T03:18:06;16.00;99.90
3644;DHT22;1838;50.742;7.158;2023-08-30T03:20:31;16.00;99.90
3644;DHT22;1838;50.742;7.158;2023-08-30T03:22:57;15.90;99.90
3644;DHT22;1838;50.742;7.158;2023-08-30T03:25:28;15.90;99.90
3644;DHT22;1838;50.742;7.158;2023-08-30T03:27:54;15.90;99.90
3644;DHT22;1838;50.742;7.158;2023-08-30T03:30:20;16.00;99.90
3644;DHT22;1838;50.742;7.158;2023-08-30T03:32:45;16.00;99.90
3644;DHT22;1838;50.742;7.158;2023-08-30T03:35:11;15.90;99.90
3644;DHT22;1838;50.742;7.158;2023-08-30T03:37:37;15.90;99.90
3644;DHT22;1838;50.742;7.158;2023-08-30T03:40:02;15.90;99.90
3644;DHT22;1838;50.742;7.158;2023-08-30T03:42:32;15.90;99.90
3644;DHT22;1838;50.742;7.158;2023-08-30T03:44:58;16.00;99.90
3644;DHT22;1838;50.742;7.158;2023-08-30T03:47:24;15.90;99.90
3644;DHT22;1838;50.742;7.158;2023-08-30T03:49:49;15.90;99.90
3644;DHT22;1838;50.742;7.158;2023-08-30T03:52:15;15.80;99.90
3644;DHT22;1838;50.742;7.158;2023-08-30T03:54:40;15.80;99.90
3644;DHT22;1838;50.742;7.158;2023-08-30T03:57:06;15.80;99.90
3644;DHT22;1838;50.742;7.158;2023-08-30T03:59:31;15.80;99.90
3644;DHT22;1838;50.742;7.158;2023-08-30T04:01:57;15.70;99.90
3644;DHT22;1838;50.742;7.158;2023-08-30T04:04:22;15.70;99.90
3644;DHT22;1838;50.742;7.158;2023-08-30T04:06:48;15.70;99.90
3644;DHT22;1838;50.742;7.158;2023-08-30T04:09:13;15.60;99.90
3644;DHT22;1838;50.742;7.158;2023-08-30T04:11:39;15.50;99.90
3644;DHT22;1838;50.742;7.158;2023-08-30T04:14:04;15.50;99.90
3644;DHT22;1838;50.742;7.158;2023-08-30T04:16:30;15.40;99.90
3644;DHT22;1838;50.742;7.158;2023-08-30T04:18:55;15.30;99.90
3644;DHT22;1838;50.742;7.158;2023-08-30T04:21:21;15.20;99.90
3644;DHT22;1838;50.742;7.158;2023-08-30T04:23:46;15.10;99.90
3644;DHT22;1838;50.742;7.158;2023-08-30T04:26:12;15.10;99.90
3644;DHT22;1838;50.742;7.158;2023-08-30T04:28:37;15.00;99.90
3644;DHT22;1838;50.742;7.158;2023-08-30T04:31:03;15.00;99.90
3644;DHT22;1838;50.742;7.158;2023-08-30T04:33:28;15.00;99.90
3644;DHT22;1838;50.742;7.158;2023-08-30T04:35:55;15.00;99.90
3644;DHT22;1838;50.742;7.158;2023-08-30T04:38:21;14.90;99.90
3644;DHT22;1838;50.742;7.158;2023-08-30T04:40:47;14.90;99.90
3644;DHT22;1838;50.742;7.158;2023-08-30T04:43:12;14.90;99.90
3644;DHT22;1838;50.742;7.158;2023-08-30T04:45:38;14.80;99.90
3644;DHT22;1838;50.742;7.158;2023-08-30T04:48:04;14.80;99.90
3644;DHT22;1838;50.742;7.158;2023-08-30T04:50:30;14.80;99.90
3644;DHT22;1838;50.742;7.158;2023-08-30T04:52:56;14.80;99.90
3644;DHT22;1838;50.742;7.158;2023-08-30T04:55:24;14.80;99.90
3644;DHT22;1838;50.742;7.158;2023-08-30T04:57:49;14.80;99.90
3644;DHT22;1838;50.742;7.158;2023-08-30T05:00:15;14.80;99.90
3644;DHT22;1838;50.742;7.158;2023-08-30T05:02:41;14.80;99.90
3644;DHT22;1838;50.742;7.158;2023-08-30T05:05:09;14.80;99.90
3644;DHT22;1838;50.742;7.158;2023-08-30T05:07:34;14.70;99.90
3644;DHT22;1838;50.742;7.158;2023-08-30T05:10:00;14.70;99.90
3644;DHT22;1838;50.742;7.158;2023-08-30T05:12:25;14.70;99.90
3644;DHT22;1838;50.742;7.158;2023-08-30T05:14:51;14.80;99.90
3644;DHT22;1838;50.742;7.158;2023-08-30T05:17:16;14.80;99.90
3644;DHT22;1838;50.742;7.158;2023-08-30T05:19:42;14.70;99.90
3644;DHT22;1838;50.742;7.158;2023-08-30T05:22:07;14.60;99.90
3644;DHT22;1838;50.742;7.158;2023-08-30T05:24:33;14.60;99.90
3644;DHT22;1838;50.742;7.158;2023-08-30T05:26:59;14.70;99.90
3644;DHT22;1838;50.742;7.158;2023-08-30T05:29:24;14.70;99.90
3644;DHT22;1838;50.742;7.158;2023-08-30T05:31:50;14.80;99.90
3644;DHT22;1838;50.742;7.158;2023-08-30T05:34:15;14.80;99.90
3644;DHT22;1838;50.742;7.158;2023-08-30T05:36:41;14.90;99.90
3644;DHT22;1838;50.742;7.158;2023-08-30T05:39:06;14.90;99.90
3644;DHT22;1838;50.742;7.158;2023-08-30T05:41:32;14.90;99.90
3644;DHT22;1838;50.742;7.158;2023-08-30T05:43:58;14.90;99.90
3644;DHT22;1838;50.742;7.158;2023-08-30T05:46:23;15.00;99.90
3644;DHT22;1838;50.742;7.158;2023-08-30T05:48:49;15.00;99.90
3644;DHT22;1838;50.742;7.158;2023-08-30T05:51:15;14.90;99.90
3644;DHT22;1838;50.742;7.158;2023-08-30T05:53:40;15.00;99.90
3644;DHT22;1838;50.742;7.158;2023-08-30T05:56:06;15.00;99.90
3644;DHT22;1838;50.742;7.158;2023-08-30T05:58:31;15.00;99.90
3644;DHT22;1838;50.742;7.158;2023-08-30T06:00:57;15.00;99.90
3644;DHT22;1838;50.742;7.158;2023-08-30T06:03:24;15.10;99.90
3644;DHT22;1838;50.742;7.158;2023-08-30T06:05:50;15.10;99.90
3644;DHT22;1838;50.742;7.158;2023-08-30T06:08:15;15.10;99.90
3644;DHT22;1838;50.742;7.158;2023-08-30T06:10:43;15.10;99.90
3644;DHT22;1838;50.742;7.158;2023-08-30T06:13:08;15.10;99.90
3644;DHT22;1838;50.742;7.158;2023-08-30T06:15:35;15.20;99.90
3644;DHT22;1838;50.742;7.158;2023-08-30T06:18:03;15.20;99.90
3644;DHT22;1838;50.742;7.158;2023-08-30T06:20:28;15.30;99.90
3644;DHT22;1838;50.742;7.158;2023-08-30T06:22:54;15.40;99.90
3644;DHT22;1838;50.742;7.158;2023-08-30T06:25:19;15.50;99.90
3644;DHT22;1838;50.742;7.158;2023-08-30T06:27:56;15.50;99.90
3644;DHT22;1838;50.742;7.158;2023-08-30T06:30:22;15.50;99.90
3644;DHT22;1838;50.742;7.158;2023-08-30T06:32:48;15.50;99.90
3644;DHT22;1838;50.742;7.158;2023-08-30T06:35:14;15.50;99.90
3644;DHT22;1838;50.742;7.158;2023-08-30T06:37:40;15.60;99.90
3644;DHT22;1838;50.742;7.158;2023-08-30T06:40:06;15.60;99.90
3644;DHT22;1838;50.742;7.158;2023-08-30T06:42:32;15.60;99.90
3644;DHT22;1838;50.742;7.158;2023-08-30T06:44:57;15.70;99.90
3644;DHT22;1838;50.742;7.158;2023-08-30T06:47:23;15.70;99.90
3644;DHT22;1838;50.742;7.158;2023-08-30T06:49:48;15.80;99.90
3644;DHT22;1838;50.742;7.158;2023-08-30T06:52:14;15.90;99.90
3644;DHT22;1838;50.742;7.158;2023-08-30T06:54:39;16.00;99.90
3644;DHT22;1838;50.742;7.158;2023-08-30T06:57:05;16.10;99.90
3644;DHT22;1838;50.742;7.158;2023-08-30T06:59:32;16.20;99.90
3644;DHT22;1838;50.742;7.158;2023-08-30T07:01:57;16.40;99.90
3644;DHT22;1838;50.742;7.158;2023-08-30T07:04:23;16.60;99.90
3644;DHT22;1838;50.742;7.158;2023-08-30T07:06:49;16.80;99.90
3644;DHT22;1838;50.742;7.158;2023-08-30T07:09:14;17.00;99.90
3644;DHT22;1838;50.742;7.158;2023-08-30T07:11:42;17.10;99.90
3644;DHT22;1838;50.742;7.158;2023-08-30T07:14:09;17.20;99.90
3644;DHT22;1838;50.742;7.158;2023-08-30T07:16:34;17.20;99.90
3644;DHT22;1838;50.742;7.158;2023-08-30T07:19:00;17.20;99.90
3644;DHT22;1838;50.742;7.158;2023-08-30T07:21:27;17.30;99.90
3644;DHT22;1838;50.742;7.158;2023-08-30T07:23:52;17.30;99.90
3644;DHT22;1838;50.742;7.158;2023-08-30T07:26:18;17.50;99.90
3644;DHT22;1838;50.742;7.158;2023-08-30T07:28:43;17.80;99.90
3644;DHT22;1838;50.742;7.158;2023-08-30T07:31:09;18.00;99.90
3644;DHT22;1838;50.742;7.158;2023-08-30T07:33:35;18.10;99.90
3644;DHT22;1838;50.742;7.158;2023-08-30T07:36:01;18.30;99.90
3644;DHT22;1838;50.742;7.158;2023-08-30T07:38:26;18.30;99.90
3644;DHT22;1838;50.742;7.158;2023-08-30T07:40:53;18.20;99.90
3644;DHT22;1838;50.742;7.158;2023-08-30T07:43:18;18.40;99.90
3644;DHT22;1838;50.742;7.158;2023-08-30T07:45:44;18.50;99.90
3644;DHT22;1838;50.742;7.158;2023-08-30T07:48:09;18.70;99.90
3644;DHT22;1838;50.742;7.158;2023-08-30T07:50:35;18.90;99.90
3644;DHT22;1838;50.742;7.158;2023-08-30T07:53:00;19.00;99.90
3644;DHT22;1838;50.742;7.158;2023-08-30T07:55:26;19.40;99.90
3644;DHT22;1838;50.742;7.158;2023-08-30T07:57:51;19.50;99.90
3644;DHT22;1838;50.742;7.158;2023-08-30T08:00:17;19.80;99.90
3644;DHT22;1838;50.742;7.158;2023-08-30T08:02:42;20.10;99.90
3644;DHT22;1838;50.742;7.158;2023-08-30T08:05:08;20.30;99.90
3644;DHT22;1838;50.742;7.158;2023-08-30T08:07:39;20.50;99.90
3644;DHT22;1838;50.742;7.158;2023-08-30T08:10:06;20.50;99.90
3644;DHT22;1838;50.742;7.158;2023-08-30T08:12:33;20.60;99.90
3644;DHT22;1838;50.742;7.158;2023-08-30T08:14:58;20.60;99.90
3644;DHT22;1838;50.742;7.158;2023-08-30T08:17:24;20.80;99.90
3644;DHT22;1838;50.742;7.158;2023-08-30T08:19:49;20.90;99.90
3644;DHT22;1838;50.742;7.158;2023-08-30T08:22:15;21.00;99.90
3644;DHT22;1838;50.742;7.158;2023-08-30T08:24:41;21.00;99.90
3644;DHT22;1838;50.742;7.158;2023-08-30T08:27:09;21.10;99.90
3644;DHT22;1838;50.742;7.158;2023-08-30T08:29:34;21.10;99.90
3644;DHT22;1838;50.742;7.158;2023-08-30T08:32:00;21.30;99.90
3644;DHT22;1838;50.742;7.158;2023-08-30T08:34:25;21.70;99.90
3644;DHT22;1838;50.742;7.158;2023-08-30T08:36:51;21.90;99.90
3644;DHT22;1838;50.742;7.158;2023-08-30T08:39:16;22.30;99.90
3644;DHT22;1838;50.742;7.158;2023-08-30T08:41:44;22.40;99.90
3644;DHT22;1838;50.742;7.158;2023-08-30T08:44:11;22.50;99.90
3644;DHT22;1838;50.742;7.158;2023-08-30T08:46:39;22.80;99.90
3644;DHT22;1838;50.742;7.158;2023-08-30T08:49:14;23.10;99.90
3644;DHT22;1838;50.742;7.158;2023-08-30T08:51:41;23.30;99.90
3644;DHT22;1838;50.742;7.158;2023-08-30T08:54:08;23.50;99.90
3644;DHT22;1838;50.742;7.158;2023-08-30T08:56:37;23.50;99.90
3644;DHT22;1838;50.742;7.158;2023-08-30T08:59:03;23.50;99.90
3644;DHT22;1838;50.742;7.158;2023-08-30T09:01:29;23.60;99.90
3644;DHT22;1838;50.742;7.158;2023-08-30T09:03:56;23.70;99.90
3644;DHT22;1838;50.742;7.158;2023-08-30T09:06:22;23.90;99.90
3644;DHT22;1838;50.742;7.158;2023-08-30T09:08:48;24.30;99.90
3644;DHT22;1838;50.742;7.158;2023-08-30T09:11:14;24.40;99.90
3644;DHT22;1838;50.742;7.158;2023-08-30T09:13:40;24.50;99.40
3644;DHT22;1838;50.742;7.158;2023-08-30T09:16:14;24.60;99.90
3644;DHT22;1838;50.742;7.158;2023-08-30T09:18:43;24.60;99.90
3644;DHT22;1838;50.742;7.158;2023-08-30T09:21:09;25.00;99.90
3644;DHT22;1838;50.742;7.158;2023-08-30T09:23:36;25.20;98.80
3644;DHT22;1838;50.742;7.158;2023-08-30T09:26:02;25.50;97.80
3644;DHT22;1838;50.742;7.158;2023-08-30T09:28:31;25.70;96.70
3644;DHT22;1838;50.742;7.158;2023-08-30T09:30:59;25.70;95.00
3644;DHT22;1838;50.742;7.158;2023-08-30T09:33:32;25.60;94.90
3644;DHT22;1838;50.742;7.158;2023-08-30T09:35:59;25.00;94.90
3644;DHT22;1838;50.742;7.158;2023-08-30T09:38:25;24.70;96.30
3644;DHT22;1838;50.742;7.158;2023-08-30T09:40:51;24.70;97.80
3644;DHT22;1838;50.742;7.158;2023-08-30T09:43:20;24.60;96.50
3644;DHT22;1838;50.742;7.158;2023-08-30T09:45:50;24.40;97.40
3644;DHT22;1838;50.742;7.158;2023-08-30T09:48:20;23.80;97.30
3644;DHT22;1838;50.742;7.158;2023-08-30T09:50:47;23.60;99.90
3644;DHT22;1838;50.742;7.158;2023-08-30T09:53:17;23.80;99.90
3644;DHT22;1838;50.742;7.158;2023-08-30T09:55:44;23.70;99.80
3644;DHT22;1838;50.742;7.158;2023-08-30T09:58:10;23.70;99.90
3644;DHT22;1838;50.742;7.158;2023-08-30T10:00:36;23.50;99.90
3644;DHT22;1838;50.742;7.158;2023-08-30T10:03:03;23.50;99.90
3644;DHT22;1838;50.742;7.158;2023-08-30T10:05:29;23.80;99.90
3644;DHT22;1838;50.742;7.158;2023-08-30T10:07:56;23.80;99.90
3644;DHT22;1838;50.742;7.158;2023-08-30T10:10:25;24.00;99.90
3644;DHT22;1838;50.742;7.158;2023-08-30T10:12:51;24.10;99.90
3644;DHT22;1838;50.742;7.158;2023-08-30T10:15:20;24.10;99.90
3644;DHT22;1838;50.742;7.158;2023-08-30T10:17:47;24.30;99.90
3644;DHT22;1838;50.742;7.158;2023-08-30T10:20:19;24.10;99.50
3644;DHT22;1838;50.742;7.158;2023-08-30T10:22:46;24.10;99.50
3644;DHT22;1838;50.742;7.158;2023-08-30T10:25:21;24.00;99.90
3644;DHT22;1838;50.742;7.158;2023-08-30T10:27:48;24.00;99.90
3644;DHT22;1838;50.742;7.158;2023-08-30T10:30:15;23.90;99.90
3644;DHT22;1838;50.742;7.158;2023-08-30T10:32:43;23.90;99.90
3644;DHT22;1838;50.742;7.158;2023-08-30T10:35:13;23.70;99.90
3644;DHT22;1838;50.742;7.158;2023-08-30T10:37:39;23.60;99.90
3644;DHT22;1838;50.742;7.158;2023-08-30T10:40:05;23.50;99.90
3644;DHT22;1838;50.742;7.158;2023-08-30T10:42:31;23.20;99.90
3644;DHT22;1838;50.742;7.158;2023-08-30T10:45:06;23.10;99.90
3644;DHT22;1838;50.742;7.158;2023-08-30T10:47:34;23.10;99.90
3644;DHT22;1838;50.742;7.158;2023-08-30T10:50:10;23.20;99.90
3644;DHT22;1838;50.742;7.158;2023-08-30T10:52:35;23.10;99.90
3644;DHT22;1838;50.742;7.158;2023-08-30T10:55:13;23.00;99.90
3644;DHT22;1838;50.742;7.158;2023-08-30T10:57:44;22.90;99.90
3644;DHT22;1838;50.742;7.158;2023-08-30T11:02:48;22.40;99.90
3644;DHT22;1838;50.742;7.158;2023-08-30T11:05:20;22.40;99.90
3644;DHT22;1838;50.742;7.158;2023-08-30T11:07:46;22.30;99.90
3644;DHT22;1838;50.742;7.158;2023-08-30T11:10:12;22.20;99.90
3644;DHT22;1838;50.742;7.158;2023-08-30T11:12:41;22.20;99.90
3644;DHT22;1838;50.742;7.158;2023-08-30T11:15:09;22.20;99.90
3644;DHT22;1838;50.742;7.158;2023-08-30T11:17:34;22.30;99.90
3644;DHT22;1838;50.742;7.158;2023-08-30T11:20:14;22.50;99.90
3644;DHT22;1838;50.742;7.158;2023-08-30T11:22:42;22.40;99.90
3644;DHT22;1838;50.742;7.158;2023-08-30T11:25:09;22.30;99.90
3644;DHT22;1838;50.742;7.158;2023-08-30T11:27:35;22.30;99.90
3644;DHT22;1838;50.742;7.158;2023-08-30T11:30:01;22.30;99.90
3644;DHT22;1838;50.742;7.158;2023-08-30T11:32:34;22.30;99.90
3644;DHT22;1838;50.742;7.158;2023-08-30T11:35:00;22.30;99.90
3644;DHT22;1838;50.742;7.158;2023-08-30T11:37:29;22.20;99.90
3644;DHT22;1838;50.742;7.158;2023-08-30T11:39:55;22.20;99.90
3644;DHT22;1838;50.742;7.158;2023-08-30T11:42:21;22.30;99.90
3644;DHT22;1838;50.742;7.158;2023-08-30T11:44:47;22.50;99.90
3644;DHT22;1838;50.742;7.158;2023-08-30T11:47:23;22.50;99.90
3644;DHT22;1838;50.742;7.158;2023-08-30T11:50:04;22.40;99.90
3644;DHT22;1838;50.742;7.158;2023-08-30T11:52:32;22.40;99.90
3644;DHT22;1838;50.742;7.158;2023-08-30T11:54:58;22.20;99.90
3644;DHT22;1838;50.742;7.158;2023-08-30T12:28:26;19.90;99.90
3644;DHT22;1838;50.742;7.158;2023-08-30T12:30:52;19.90;99.90
3644;DHT22;1838;50.742;7.158;2023-08-30T12:33:18;19.90;99.90
3644;DHT22;1838;50.742;7.158;2023-08-30T12:35:44;19.90;99.90
3644;DHT22;1838;50.742;7.158;2023-08-30T12:38:10;19.80;99.90
3644;DHT22;1838;50.742;7.158;2023-08-30T12:40:37;19.80;99.90
3644;DHT22;1838;50.742;7.158;2023-08-30T12:43:03;19.80;99.90
3644;DHT22;1838;50.742;7.158;2023-08-30T12:45:29;19.80;99.90
3644;DHT22;1838;50.742;7.158;2023-08-30T12:47:54;19.80;99.90
3644;DHT22;1838;50.742;7.158;2023-08-30T12:50:21;19.90;99.90
3644;DHT22;1838;50.742;7.158;2023-08-30T12:52:47;19.90;99.90
3644;DHT22;1838;50.742;7.158;2023-08-30T12:55:13;19.90;99.90
3644;DHT22;1838;50.742;7.158;2023-08-30T12:57:39;20.00;99.90
3644;DHT22;1838;50.742;7.158;2023-08-30T13:00:05;19.90;99.90
3644;DHT22;1838;50.742;7.158;2023-08-30T13:02:30;20.00;99.90
3644;DHT22;1838;50.742;7.158;2023-08-30T13:04:56;20.00;99.90
3644;DHT22;1838;50.742;7.158;2023-08-30T13:07:21;20.00;99.90
3644;DHT22;1838;50.742;7.158;2023-08-30T13:09:47;20.10;99.90
3644;DHT22;1838;50.742;7.158;2023-08-30T13:12:12;20.00;99.90
3644;DHT22;1838;50.742;7.158;2023-08-30T13:14:38;20.00;99.90
3644;DHT22;1838;50.742;7.158;2023-08-30T13:17:04;19.90;99.90
3644;DHT22;1838;50.742;7.158;2023-08-30T13:19:29;19.90;99.90
3644;DHT22;1838;50.742;7.158;2023-08-30T13:21:55;19.90;99.90
3644;DHT22;1838;50.742;7.158;2023-08-30T13:24:20;19.90;99.90
3644;DHT22;1838;50.742;7.158;2023-08-30T13:26:46;20.00;99.90
3644;DHT22;1838;50.742;7.158;2023-08-30T13:29:12;20.00;99.90
3644;DHT22;1838;50.742;7.158;2023-08-30T13:31:37;20.00;99.90
3644;DHT22;1838;50.742;7.158;2023-08-30T13:34:03;20.00;99.90
3644;DHT22;1838;50.742;7.158;2023-08-30T13:36:29;20.00;99.90
3644;DHT22;1838;50.742;7.158;2023-08-30T13:38:54;20.00;99.90
3644;DHT22;1838;50.742;7.158;2023-08-30T13:41:20;20.00;99.90
3644;DHT22;1838;50.742;7.158;2023-08-30T13:43:46;20.10;99.90
3644;DHT22;1838;50.742;7.158;2023-08-30T13:46:11;20.20;99.90
3644;DHT22;1838;50.742;7.158;2023-08-30T13:48:37;20.20;99.90
3644;DHT22;1838;50.742;7.158;2023-08-30T13:51:02;20.30;99.90
3644;DHT22;1838;50.742;7.158;2023-08-30T13:53:28;20.40;99.90
3644;DHT22;1838;50.742;7.158;2023-08-30T13:55:53;20.40;99.90
3644;DHT22;1838;50.742;7.158;2023-08-30T13:58:19;20.40;99.90
3644;DHT22;1838;50.742;7.158;2023-08-30T14:00:45;20.40;99.90
3644;DHT22;1838;50.742;7.158;2023-08-30T14:03:10;20.40;99.90
3644;DHT22;1838;50.742;7.158;2023-08-30T14:05:37;20.40;99.90
3644;DHT22;1838;50.742;7.158;2023-08-30T14:08:06;20.40;99.90
3644;DHT22;1838;50.742;7.158;2023-08-30T14:10:32;20.30;99.90
3644;DHT22;1838;50.742;7.158;2023-08-30T14:12:58;20.20;99.90
3644;DHT22;1838;50.742;7.158;2023-08-30T14:15:23;20.00;99.90
3644;DHT22;1838;50.742;7.158;2023-08-30T14:17:49;20.00;99.90
3644;DHT22;1838;50.742;7.158;2023-08-30T14:20:14;19.80;99.90
3644;DHT22;1838;50.742;7.158;2023-08-30T14:22:40;19.60;99.90
3644;DHT22;1838;50.742;7.158;2023-08-30T14:25:06;19.60;99.90
3644;DHT22;1838;50.742;7.158;2023-08-30T14:27:31;19.60;99.90
3644;DHT22;1838;50.742;7.158;2023-08-30T14:29:57;19.70;99.90
3644;DHT22;1838;50.742;7.158;2023-08-30T14:32:22;19.70;99.90
3644;DHT22;1838;50.742;7.158;2023-08-30T14:34:48;19.80;99.90
3644;DHT22;1838;50.742;7.158;2023-08-30T14:37:13;19.80;99.90
3644;DHT22;1838;50.742;7.158;2023-08-30T14:39:39;19.90;99.90
3644;DHT22;1838;50.742;7.158;2023-08-30T14:42:07;20.00;99.90
3644;DHT22;1838;50.742;7.158;2023-08-30T14:44:33;20.00;99.90
3644;DHT22;1838;50.742;7.158;2023-08-30T14:46:58;19.60;99.90
3644;DHT22;1838;50.742;7.158;2023-08-30T14:49:24;19.30;99.90
3644;DHT22;1838;50.742;7.158;2023-08-30T14:51:50;19.10;99.90
3644;DHT22;1838;50.742;7.158;2023-08-30T14:54:15;18.90;99.90
3644;DHT22;1838;50.742;7.158;2023-08-30T14:56:41;18.80;99.90
3644;DHT22;1838;50.742;7.158;2023-08-30T14:59:06;18.60;99.90
3644;DHT22;1838;50.742;7.158;2023-08-30T15:01:32;18.40;99.90
3644;DHT22;1838;50.742;7.158;2023-08-30T15:03:57;18.30;99.90
3644;DHT22;1838;50.742;7.158;2023-08-30T15:06:23;18.20;99.90
3644;DHT22;1838;50.742;7.158;2023-08-30T15:08:48;18.10;99.90
3644;DHT22;1838;50.742;7.158;2023-08-30T15:11:14;18.10;99.90
3644;DHT22;1838;50.742;7.158;2023-08-30T15:13:39;18.00;99.90
3644;DHT22;1838;50.742;7.158;2023-08-30T15:16:05;17.90;99.90
3644;DHT22;1838;50.742;7.158;2023-08-30T15:18:30;17.90;99.90
3644;DHT22;1838;50.742;7.158;2023-08-30T15:20:56;17.90;99.90
3644;DHT22;1838;50.742;7.158;2023-08-30T15:23:22;17.90;99.90
3644;DHT22;1838;50.742;7.158;2023-08-30T15:25:48;18.00;99.90
3644;DHT22;1838;50.742;7.158;2023-08-30T15:28:15;18.10;99.90
3644;DHT22;1838;50.742;7.158;2023-08-30T15:30:42;18.10;99.90
3644;DHT22;1838;50.742;7.158;2023-08-30T15:33:08;18.20;99.90
3644;DHT22;1838;50.742;7.158;2023-08-30T15:35:39;18.20;99.90
3644;DHT22;1838;50.742;7.158;2023-08-30T15:38:05;18.30;99.90
3644;DHT22;1838;50.742;7.158;2023-08-30T15:40:31;18.20;99.90
3644;DHT22;1838;50.742;7.158;2023-08-30T15:42:58;18.40;99.90
3644;DHT22;1838;50.742;7.158;2023-08-30T15:45:24;18.40;99.90
3644;DHT22;1838;50.742;7.158;2023-08-30T15:47:49;18.50;99.90
3644;DHT22;1838;50.742;7.158;2023-08-30T15:50:15;18.60;99.90
3644;DHT22;1838;50.742;7.158;2023-08-30T15:52:40;18.70;99.90
3644;DHT22;1838;50.742;7.158;2023-08-30T15:55:06;18.90;99.90
3644;DHT22;1838;50.742;7.158;2023-08-30T15:57:32;19.00;99.90
3644;DHT22;1838;50.742;7.158;2023-08-30T15:59:57;19.20;99.90
3644;DHT22;1838;50.742;7.158;2023-08-30T16:02:23;19.40;99.90
3644;DHT22;1838;50.742;7.158;2023-08-30T16:04:49;19.40;99.90
3644;DHT22;1838;50.742;7.158;2023-08-30T16:07:14;19.40;99.90
3644;DHT22;1838;50.742;7.158;2023-08-30T16:09:40;19.50;99.90
3644;DHT22;1838;50.742;7.158;2023-08-30T16:12:05;19.60;99.90
3644;DHT22;1838;50.742;7.158;2023-08-30T16:14:31;19.60;99.90
3644;DHT22;1838;50.742;7.158;2023-08-30T16:16:56;19.70;99.90
3644;DHT22;1838;50.742;7.158;2023-08-30T16:19:22;19.60;99.90
3644;DHT22;1838;50.742;7.158;2023-08-30T16:21:51;19.60;99.90
3644;DHT22;1838;50.742;7.158;2023-08-30T16:24:20;19.60;99.90
3644;DHT22;1838;50.742;7.158;2023-08-30T16:26:45;19.60;99.90
3644;DHT22;1838;50.742;7.158;2023-08-30T16:29:11;19.50;99.90
3644;DHT22;1838;50.742;7.158;2023-08-30T16:31:37;19.40;99.90